sensor_id;sensor_type;location;lat;lon;timestamp;pressure;altitude;pressure_sealevel;temperature;humidity
60258;BME280;46115;44.484;11.314;2023-05-03T00:03:31;100641.44;;;13.79;100.00
60258;BME280;46115;44.484;11.314;2023-05-03T00:07:33;100639.69;;;13.63;100.00
60258;BME280;46115;44.484;11.314;2023-05-03T00:11:36;100633.28;;;13.52;100.00
60258;BME280;46115;44.484;11.314;2023-05-03T00:15:40;100635.81;;;13.69;100.00
60258;BME280;46115;44.484;11.314;2023-05-03T00:19:42;100643.72;;;13.85;100.00
60258;BME280;46115;44.484;11.314;2023-05-03T00:23:45;100625.22;;;13.83;100.00
60258;BME280;46115;44.484;11.314;2023-05-03T00:27:47;100619.31;;;13.64;100.00
60258;BME280;46115;44.484;11.314;2023-05-03T00:31:51;100642.34;;;13.93;100.00
60258;BME280;46115;44.484;11.314;2023-05-03T00:35:53;100638.31;;;13.26;100.00
60258;BME280;46115;44.484;11.314;2023-05-03T00:39:55;100638.38;;;13.70;100.00
60258;BME280;46115;44.484;11.314;2023-05-03T00:44:02;100644.19;;;13.77;100.00
60258;BME280;46115;44.484;11.314;2023-05-03T01:05:50;100632.84;;;14.18;100.00
60258;BME280;46115;44.484;11.314;2023-05-03T01:10:00;100655.06;;;14.02;100.00
60258;BME280;46115;44.484;11.314;2023-05-03T01:14:11;100640.44;;;13.95;100.00
60258;BME280;46115;44.484;11.314;2023-05-03T01:18:18;100652.69;;;13.98;100.00
60258;BME280;46115;44.484;11.314;2023-05-03T01:22:26;100649.06;;;13.55;100.00
60258;BME280;46115;44.484;11.314;2023-05-03T01:26:34;100648.47;;;13.80;100.00
60258;BME280;46115;44.484;11.314;2023-05-03T01:30:39;100652.91;;;13.65;100.00
60258;BME280;46115;44.484;11.314;2023-05-03T01:34:44;100634.47;;;14.06;100.00
60258;BME280;46115;44.484;11.314;2023-05-03T01:38:49;100637.50;;;13.56;100.00
60258;BME280;46115;44.484;11.314;2023-05-03T01:42:54;100643.97;;;13.36;100.00
60258;BME280;46115;44.484;11.314;2023-05-03T01:46:57;100643.97;;;13.66;100.00
60258;BME280;46115;44.484;11.314;2023-05-03T01:51:00;100638.88;;;13.16;100.00
60258;BME280;46115;44.484;11.314;2023-05-03T01:55:04;100604.13;;;13.36;100.00
60258;BME280;46115;44.484;11.314;2023-05-03T01:59:07;100601.88;;;13.74;100.00
60258;BME280;46115;44.484;11.314;2023-05-03T02:03:11;100635.09;;;13.81;100.00
60258;BME280;46115;44.484;11.314;2023-05-03T02:07:13;100639.53;;;13.81;100.00
60258;BME280;46115;44.484;11.314;2023-05-03T02:11:15;100637.44;;;13.71;100.00
60258;BME280;46115;44.484;11.314;2023-05-03T02:15:38;100639.25;;;13.85;100.00
60258;BME280;46115;44.484;11.314;2023-05-03T02:19:41;100650.00;;;13.84;100.00
60258;BME280;46115;44.484;11.314;2023-05-03T02:23:44;100648.88;;;13.58;100.00
60258;BME280;46115;44.484;11.314;2023-05-03T02:27:47;100648.22;;;13.38;100.00
60258;BME280;46115;44.484;11.314;2023-05-03T02:31:50;100640.28;;;13.68;100.00
60258;BME280;46115;44.484;11.314;2023-05-03T02:35:53;100646.75;;;13.79;100.00
60258;BME280;46115;44.484;11.314;2023-05-03T02:39:55;100653.00;;;13.78;100.00
60258;BME280;46115;44.484;11.314;2023-05-03T02:43:58;100647.59;;;13.49;100.00
60258;BME280;46115;44.484;11.314;2023-05-03T02:48:03;100642.34;;;13.63;100.00
60258;BME280;46115;44.484;11.314;2023-05-03T02:52:06;100638.44;;;13.55;100.00
60258;BME280;46115;44.484;11.314;2023-05-03T02:56:09;100641.97;;;13.39;100.00
60258;BME280;46115;44.484;11.314;2023-05-03T03:00:12;100648.69;;;13.91;100.00
60258;BME280;46115;44.484;11.314;2023-05-03T03:04:17;100652.13;;;13.63;100.00
60258;BME280;46115;44.484;11.314;2023-05-03T03:08:19;100647.19;;;13.57;100.00
60258;BME280;46115;44.484;11.314;2023-05-03T03:12:22;100654.97;;;13.90;100.00
60258;BME280;46115;44.484;11.314;2023-05-03T03:16:27;100655.66;;;13.48;100.00
60258;BME280;46115;44.484;11.314;2023-05-03T03:20:31;100657.59;;;13.30;100.00
60258;BME280;46115;44.484;11.314;2023-05-03T03:24:34;100670.53;;;13.20;100.00
60258;BME280;46115;44.484;11.314;2023-05-03T03:28:38;100671.09;;;13.41;100.00
60258;BME280;46115;44.484;11.314;2023-05-03T03:32:44;100672.13;;;13.54;100.00
60258;BME280;46115;44.484;11.314;2023-05-03T03:36:54;100678.56;;;13.34;100.00
60258;BME280;46115;44.484;11.314;2023-05-03T03:40:57;100685.03;;;13.45;100.00
60258;BME280;46115;44.484;11.314;2023-05-03T03:45:00;100680.75;;;13.58;100.00
60258;BME280;46115;44.484;11.314;2023-05-03T03:49:04;100682.88;;;13.67;100.00
60258;BME280;46115;44.484;11.314;2023-05-03T03:53:08;100678.53;;;13.50;100.00
60258;BME280;46115;44.484;11.314;2023-05-03T03:57:13;100696.34;;;13.48;100.00
60258;BME280;46115;44.484;11.314;2023-05-03T04:01:17;100699.72;;;13.82;100.00
60258;BME280;46115;44.484;11.314;2023-05-03T04:05:20;100703.72;;;13.59;100.00
60258;BME280;46115;44.484;11.314;2023-05-03T04:09:24;100705.78;;;13.84;100.00
60258;BME280;46115;44.484;11.314;2023-05-03T04:13:26;100702.78;;;13.60;100.00
60258;BME280;46115;44.484;11.314;2023-05-03T04:17:30;100700.84;;;13.78;100.00
60258;BME280;46115;44.484;11.314;2023-05-03T04:21:37;100705.16;;;13.64;100.00
60258;BME280;46115;44.484;11.314;2023-05-03T04:25:42;100667.59;;;13.40;100.00
60258;BME280;46115;44.484;11.314;2023-05-03T04:29:47;100717.09;;;13.87;100.00
60258;BME280;46115;44.484;11.314;2023-05-03T04:33:51;100710.66;;;13.61;100.00
60258;BME280;46115;44.484;11.314;2023-05-03T04:37:53;100720.50;;;13.59;100.00
60258;BME280;46115;44.484;11.314;2023-05-03T04:42:00;100732.22;;;13.71;100.00
60258;BME280;46115;44.484;11.314;2023-05-03T04:46:04;100735.47;;;13.76;100.00
60258;BME280;46115;44.484;11.314;2023-05-03T04:50:07;100739.69;;;13.64;100.00
60258;BME280;46115;44.484;11.314;2023-05-03T04:54:13;100747.00;;;13.61;100.00
60258;BME280;46115;44.484;11.314;2023-05-03T04:58:17;100745.31;;;13.90;100.00
60258;BME280;46115;44.484;11.314;2023-05-03T05:02:20;100753.75;;;13.35;100.00
60258;BME280;46115;44.484;11.314;2023-05-03T05:06:23;100754.88;;;13.62;100.00
60258;BME280;46115;44.484;11.314;2023-05-03T05:10:26;100753.75;;;13.66;100.00
60258;BME280;46115;44.484;11.314;2023-05-03T05:14:32;100713.94;;;13.19;100.00
60258;BME280;46115;44.484;11.314;2023-05-03T05:18:35;100773.28;;;13.50;100.00
60258;BME280;46115;44.484;11.314;2023-05-03T05:22:40;100763.69;;;13.47;100.00
60258;BME280;46115;44.484;11.314;2023-05-03T05:26:42;100779.03;;;13.42;100.00
60258;BME280;46115;44.484;11.314;2023-05-03T05:30:47;100801.13;;;13.74;100.00
60258;BME280;46115;44.484;11.314;2023-05-03T05:34:50;100791.19;;;13.62;100.00
60258;BME280;46115;44.484;11.314;2023-05-03T05:38:56;100804.09;;;13.99;100.00
60258;BME280;46115;44.484;11.314;2023-05-03T05:42:58;100800.19;;;13.43;100.00
60258;BME280;46115;44.484;11.314;2023-05-03T05:47:04;100814.31;;;13.44;100.00
60258;BME280;46115;44.484;11.314;2023-05-03T05:51:08;100819.13;;;13.53;100.00
60258;BME280;46115;44.484;11.314;2023-05-03T05:55:11;100813.69;;;13.86;100.00
60258;BME280;46115;44.484;11.314;2023-05-03T05:59:16;100822.78;;;13.98;100.00
60258;BME280;46115;44.484;11.314;2023-05-03T06:03:20;100820.47;;;14.08;100.00
60258;BME280;46115;44.484;11.314;2023-05-03T06:07:24;100824.94;;;13.76;100.00
60258;BME280;46115;44.484;11.314;2023-05-03T06:11:26;100822.63;;;13.69;100.00
60258;BME280;46115;44.484;11.314;2023-05-03T06:15:30;100826.47;;;13.80;100.00
60258;BME280;46115;44.484;11.314;2023-05-03T06:19:34;100840.22;;;13.72;100.00
60258;BME280;46115;44.484;11.314;2023-05-03T06:23:36;100834.47;;;13.80;100.00
60258;BME280;46115;44.484;11.314;2023-05-03T06:27:40;100836.59;;;14.04;100.00
60258;BME280;46115;44.484;11.314;2023-05-03T06:31:43;100842.88;;;13.88;100.00
60258;BME280;46115;44.484;11.314;2023-05-03T06:35:48;100844.19;;;14.11;100.00
60258;BME280;46115;44.484;11.314;2023-05-03T06:39:52;100851.75;;;13.87;100.00
60258;BME280;46115;44.484;11.314;2023-05-03T06:43:54;100848.44;;;13.99;100.00
60258;BME280;46115;44.484;11.314;2023-05-03T06:47:58;100845.81;;;14.13;100.00
60258;BME280;46115;44.484;11.314;2023-05-03T06:52:01;100854.56;;;14.15;100.00
60258;BME280;46115;44.484;11.314;2023-05-03T06:56:04;100853.22;;;14.08;100.00
60258;BME280;46115;44.484;11.314;2023-05-03T07:00:08;100861.59;;;14.16;100.00
60258;BME280;46115;44.484;11.314;2023-05-03T07:04:11;100863.09;;;13.90;100.00
60258;BME280;46115;44.484;11.314;2023-05-03T07:08:15;100856.63;;;14.10;100.00
60258;BME280;46115;44.484;11.314;2023-05-03T07:12:17;100858.66;;;14.21;100.00
60258;BME280;46115;44.484;11.314;2023-05-03T07:16:20;100868.97;;;14.27;100.00
60258;BME280;46115;44.484;11.314;2023-05-03T07:20:22;100856.06;;;13.89;100.00
60258;BME280;46115;44.484;11.314;2023-05-03T07:24:26;100862.97;;;14.23;100.00
60258;BME280;46115;44.484;11.314;2023-05-03T07:28:28;100856.19;;;14.18;100.00
60258;BME280;46115;44.484;11.314;2023-05-03T07:32:31;100857.44;;;14.42;100.00
60258;BME280;46115;44.484;11.314;2023-05-03T07:36:33;100846.00;;;14.10;100.00
60258;BME280;46115;44.484;11.314;2023-05-03T07:40:37;100848.66;;;14.10;100.00
60258;BME280;46115;44.484;11.314;2023-05-03T07:44:39;100861.94;;;14.26;100.00
60258;BME280;46115;44.484;11.314;2023-05-03T07:48:41;100857.72;;;14.38;100.00
60258;BME280;46115;44.484;11.314;2023-05-03T07:52:43;100858.44;;;14.10;100.00
60258;BME280;46115;44.484;11.314;2023-05-03T07:56:47;100857.78;;;14.36;100.00
60258;BME280;46115;44.484;11.314;2023-05-03T08:00:50;100862.81;;;14.56;100.00
60258;BME280;46115;44.484;11.314;2023-05-03T08:04:52;100866.97;;;14.46;100.00
60258;BME280;46115;44.484;11.314;2023-05-03T08:08:55;100868.44;;;14.36;100.00
60258;BME280;46115;44.484;11.314;2023-05-03T08:12:59;100874.00;;;14.47;100.00
60258;BME280;46115;44.484;11.314;2023-05-03T08:17:01;100869.69;;;14.60;100.00
60258;BME280;46115;44.484;11.314;2023-05-03T08:21:04;100875.75;;;14.32;100.00
60258;BME280;46115;44.484;11.314;2023-05-03T08:25:09;100886.53;;;14.45;100.00
60258;BME280;46115;44.484;11.314;2023-05-03T08:29:13;100879.81;;;14.54;100.00
60258;BME280;46115;44.484;11.314;2023-05-03T08:33:16;100877.91;;;14.56;100.00
60258;BME280;46115;44.484;11.314;2023-05-03T08:37:18;100880.56;;;13.79;100.00
60258;BME280;46115;44.484;11.314;2023-05-03T08:41:21;100875.75;;;14.32;100.00
60258;BME280;46115;44.484;11.314;2023-05-03T08:45:27;100871.41;;;13.84;100.00
60258;BME280;46115;44.484;11.314;2023-05-03T08:49:30;100866.41;;;14.10;100.00
60258;BME280;46115;44.484;11.314;2023-05-03T08:53:33;100876.00;;;14.28;100.00
60258;BME280;46115;44.484;11.314;2023-05-03T08:57:36;100888.03;;;14.65;100.00
60258;BME280;46115;44.484;11.314;2023-05-03T09:01:40;100891.41;;;14.83;100.00
60258;BME280;46115;44.484;11.314;2023-05-03T09:05:43;100856.19;;;14.33;100.00
60258;BME280;46115;44.484;11.314;2023-05-03T09:09:46;100889.66;;;14.68;100.00
60258;BME280;46115;44.484;11.314;2023-05-03T09:13:49;100904.63;;;14.39;100.00
60258;BME280;46115;44.484;11.314;2023-05-03T09:18:12;100910.13;;;14.81;100.00
60258;BME280;46115;44.484;11.314;2023-05-03T09:22:17;100906.75;;;15.08;100.00
60258;BME280;46115;44.484;11.314;2023-05-03T09:26:29;100907.75;;;14.77;100.00
60258;BME280;46115;44.484;11.314;2023-05-03T09:30:32;100901.25;;;14.96;100.00
60258;BME280;46115;44.484;11.314;2023-05-03T09:34:36;100904.53;;;14.86;100.00
60258;BME280;46115;44.484;11.314;2023-05-03T09:38:38;100908.03;;;15.31;100.00
60258;BME280;46115;44.484;11.314;2023-05-03T09:42:54;100903.53;;;15.17;100.00
60258;BME280;46115;44.484;11.314;2023-05-03T09:47:06;100906.09;;;15.04;100.00
60258;BME280;46115;44.484;11.314;2023-05-03T09:51:11;100909.91;;;15.14;100.00
60258;BME280;46115;44.484;11.314;2023-05-03T09:55:15;100906.81;;;15.65;100.00
60258;BME280;46115;44.484;11.314;2023-05-03T09:59:17;100904.31;;;15.76;100.00
60258;BME280;46115;44.484;11.314;2023-05-03T10:03:23;100902.09;;;15.11;100.00
60258;BME280;46115;44.484;11.314;2023-05-03T10:07:31;100897.75;;;15.81;100.00
60258;BME280;46115;44.484;11.314;2023-05-03T10:11:34;100905.97;;;15.64;100.00
60258;BME280;46115;44.484;11.314;2023-05-03T10:15:38;100893.28;;;15.68;100.00
60258;BME280;46115;44.484;11.314;2023-05-03T10:19:47;100883.56;;;15.24;100.00
60258;BME280;46115;44.484;11.314;2023-05-03T10:24:11;100871.94;;;15.25;100.00
60258;BME280;46115;44.484;11.314;2023-05-03T10:28:13;100869.97;;;15.28;100.00
60258;BME280;46115;44.484;11.314;2023-05-03T10:32:35;100873.56;;;15.56;100.00
60258;BME280;46115;44.484;11.314;2023-05-03T10:36:41;100873.22;;;16.03;100.00
60258;BME280;46115;44.484;11.314;2023-05-03T10:40:46;100868.94;;;16.28;100.00
60258;BME280;46115;44.484;11.314;2023-05-03T10:44:52;100862.47;;;16.44;100.00
60258;BME280;46115;44.484;11.314;2023-05-03T10:49:20;100869.00;;;16.53;100.00
60258;BME280;46115;44.484;11.314;2023-05-03T10:53:36;100859.31;;;16.25;100.00
60258;BME280;46115;44.484;11.314;2023-05-03T10:57:42;100857.69;;;16.62;100.00
60258;BME280;46115;44.484;11.314;2023-05-03T11:01:45;100848.19;;;16.58;100.00
60258;BME280;46115;44.484;11.314;2023-05-03T11:05:51;100856.28;;;16.71;100.00
60258;BME280;46115;44.484;11.314;2023-05-03T11:09:53;100850.53;;;17.02;100.00
60258;BME280;46115;44.484;11.314;2023-05-03T11:13:57;100845.09;;;17.04;100.00
60258;BME280;46115;44.484;11.314;2023-05-03T11:18:00;100842.28;;;17.18;100.00
60258;BME280;46115;44.484;11.314;2023-05-03T11:22:03;100846.16;;;17.01;100.00
60258;BME280;46115;44.484;11.314;2023-05-03T11:26:05;100839.41;;;16.96;97.03
60258;BME280;46115;44.484;11.314;2023-05-03T11:30:09;100851.63;;;17.74;99.73
60258;BME280;46115;44.484;11.314;2023-05-03T11:34:12;100852.84;;;17.94;98.26
60258;BME280;46115;44.484;11.314;2023-05-03T11:38:15;100848.84;;;18.00;95.49
60258;BME280;46115;44.484;11.314;2023-05-03T11:42:18;100850.72;;;17.87;93.78
60258;BME280;46115;44.484;11.314;2023-05-03T11:46:23;100836.75;;;18.07;93.02
60258;BME280;46115;44.484;11.314;2023-05-03T11:50:41;100847.59;;;17.93;89.99
60258;BME280;46115;44.484;11.314;2023-05-03T11:54:44;100838.34;;;18.10;90.65
60258;BME280;46115;44.484;11.314;2023-05-03T11:58:51;100842.03;;;18.20;85.67
60258;BME280;46115;44.484;11.314;2023-05-03T12:02:57;100844.91;;;17.56;88.70
60258;BME280;46115;44.484;11.314;2023-05-03T12:06:59;100838.16;;;17.76;92.50
60258;BME280;46115;44.484;11.314;2023-05-03T12:11:02;100841.66;;;18.00;89.64
60258;BME280;46115;44.484;11.314;2023-05-03T12:15:06;100840.31;;;17.95;91.20
60258;BME280;46115;44.484;11.314;2023-05-03T12:19:10;100836.88;;;18.05;90.88
60258;BME280;46115;44.484;11.314;2023-05-03T12:23:13;100828.22;;;18.37;86.42
60258;BME280;46115;44.484;11.314;2023-05-03T12:27:15;100829.06;;;18.37;86.28
60258;BME280;46115;44.484;11.314;2023-05-03T12:31:17;100836.06;;;18.16;88.30
60258;BME280;46115;44.484;11.314;2023-05-03T12:35:22;100832.97;;;17.86;89.39
60258;BME280;46115;44.484;11.314;2023-05-03T12:39:24;100828.44;;;18.34;88.56
60258;BME280;46115;44.484;11.314;2023-05-03T12:43:27;100821.44;;;17.36;89.49
60258;BME280;46115;44.484;11.314;2023-05-03T12:47:29;100820.47;;;17.24;84.81
60258;BME280;46115;44.484;11.314;2023-05-03T12:51:33;100826.91;;;18.07;86.20
60258;BME280;46115;44.484;11.314;2023-05-03T12:55:37;100816.84;;;17.98;88.20
60258;BME280;46115;44.484;11.314;2023-05-03T12:59:40;100811.19;;;17.66;86.74
60258;BME280;46115;44.484;11.314;2023-05-03T13:03:42;100817.28;;;17.68;88.46
60258;BME280;46115;44.484;11.314;2023-05-03T13:07:46;100804.94;;;18.26;85.12
60258;BME280;46115;44.484;11.314;2023-05-03T13:11:50;100808.84;;;17.98;81.23
60258;BME280;46115;44.484;11.314;2023-05-03T13:15:53;100804.53;;;18.44;77.15
60258;BME280;46115;44.484;11.314;2023-05-03T13:19:55;100799.72;;;18.25;79.37
60258;BME280;46115;44.484;11.314;2023-05-03T13:23:59;100796.50;;;18.08;83.43
60258;BME280;46115;44.484;11.314;2023-05-03T13:28:01;100788.47;;;18.44;73.32
60258;BME280;46115;44.484;11.314;2023-05-03T13:32:04;100791.53;;;18.50;74.90
60258;BME280;46115;44.484;11.314;2023-05-03T13:36:08;100790.13;;;17.74;72.66
60258;BME280;46115;44.484;11.314;2023-05-03T13:40:13;100792.22;;;17.45;75.52
60258;BME280;46115;44.484;11.314;2023-05-03T13:44:15;100788.75;;;17.56;75.79
60258;BME280;46115;44.484;11.314;2023-05-03T13:48:18;100786.69;;;18.20;78.38
60258;BME280;46115;44.484;11.314;2023-05-03T13:52:20;100781.19;;;17.50;81.52
60258;BME280;46115;44.484;11.314;2023-05-03T13:56:24;100778.25;;;18.49;79.92
60258;BME280;46115;44.484;11.314;2023-05-03T14:00:26;100780.16;;;18.70;75.73
60258;BME280;46115;44.484;11.314;2023-05-03T14:04:29;100776.97;;;17.95;81.38
60258;BME280;46115;44.484;11.314;2023-05-03T14:08:31;100782.84;;;17.76;76.49
60258;BME280;46115;44.484;11.314;2023-05-03T14:12:35;100783.97;;;17.85;74.07
60258;BME280;46115;44.484;11.314;2023-05-03T14:16:38;100775.66;;;18.01;71.86
60258;BME280;46115;44.484;11.314;2023-05-03T14:20:40;100781.66;;;18.39;71.56
60258;BME280;46115;44.484;11.314;2023-05-03T14:24:43;100763.78;;;17.81;72.14
60258;BME280;46115;44.484;11.314;2023-05-03T14:28:47;100785.34;;;18.61;73.26
60258;BME280;46115;44.484;11.314;2023-05-03T14:32:49;100782.22;;;18.32;74.11
60258;BME280;46115;44.484;11.314;2023-05-03T14:36:52;100766.22;;;18.54;70.38
60258;BME280;46115;44.484;11.314;2023-05-03T14:40:55;100780.06;;;18.83;68.92
60258;BME280;46115;44.484;11.314;2023-05-03T14:44:59;100778.97;;;18.75;66.14
60258;BME280;46115;44.484;11.314;2023-05-03T14:49:01;100783.47;;;18.39;65.50
60258;BME280;46115;44.484;11.314;2023-05-03T14:53:03;100773.66;;;18.16;66.91
60258;BME280;46115;44.484;11.314;2023-05-03T14:57:06;100776.13;;;17.95;66.08
60258;BME280;46115;44.484;11.314;2023-05-03T15:01:16;100781.19;;;18.46;69.65
60258;BME280;46115;44.484;11.314;2023-05-03T15:05:19;100774.31;;;18.30;76.04
60258;BME280;46115;44.484;11.314;2023-05-03T15:09:22;100778.66;;;18.20;77.23
60258;BME280;46115;44.484;11.314;2023-05-03T15:13:24;100777.66;;;18.56;77.16
60258;BME280;46115;44.484;11.314;2023-05-03T15:17:28;100773.47;;;18.30;80.35
60258;BME280;46115;44.484;11.314;2023-05-03T15:21:31;100778.19;;;18.26;77.26
60258;BME280;46115;44.484;11.314;2023-05-03T15:25:45;100776.59;;;18.24;74.26
60258;BME280;46115;44.484;11.314;2023-05-03T15:29:47;100760.50;;;18.59;75.96
60258;BME280;46115;44.484;11.314;2023-05-03T15:33:51;100759.00;;;18.90;68.38
60258;BME280;46115;44.484;11.314;2023-05-03T15:37:53;100764.31;;;18.67;67.63
60258;BME280;46115;44.484;11.314;2023-05-03T15:41:56;100770.38;;;18.58;65.99
60258;BME280;46115;44.484;11.314;2023-05-03T15:46:00;100763.66;;;18.42;66.03
60258;BME280;46115;44.484;11.314;2023-05-03T15:50:05;100760.31;;;18.27;71.99
60258;BME280;46115;44.484;11.314;2023-05-03T15:54:07;100759.75;;;18.46;72.84
60258;BME280;46115;44.484;11.314;2023-05-03T15:58:10;100753.88;;;18.76;72.00
60258;BME280;46115;44.484;11.314;2023-05-03T16:02:12;100758.72;;;18.70;66.89
60258;BME280;46115;44.484;11.314;2023-05-03T16:06:16;100758.38;;;18.86;65.79
60258;BME280;46115;44.484;11.314;2023-05-03T16:10:19;100760.94;;;18.30;65.16
60258;BME280;46115;44.484;11.314;2023-05-03T16:14:22;100757.34;;;18.54;66.55
60258;BME280;46115;44.484;11.314;2023-05-03T16:18:25;100745.47;;;18.34;69.21
60258;BME280;46115;44.484;11.314;2023-05-03T16:22:29;100751.28;;;18.63;69.83
60258;BME280;46115;44.484;11.314;2023-05-03T16:26:31;100746.75;;;18.52;67.53
60258;BME280;46115;44.484;11.314;2023-05-03T16:30:34;100751.91;;;18.66;66.61
60258;BME280;46115;44.484;11.314;2023-05-03T16:34:37;100749.38;;;17.95;68.71
60258;BME280;46115;44.484;11.314;2023-05-03T16:38:41;100750.66;;;18.48;66.70
60258;BME280;46115;44.484;11.314;2023-05-03T16:42:43;100754.91;;;18.51;66.42
60258;BME280;46115;44.484;11.314;2023-05-03T16:46:46;100755.88;;;18.50;67.00
60258;BME280;46115;44.484;11.314;2023-05-03T16:50:48;100744.88;;;17.95;70.66
60258;BME280;46115;44.484;11.314;2023-05-03T16:54:52;100755.56;;;18.19;71.77
60258;BME280;46115;44.484;11.314;2023-05-03T16:58:55;100751.56;;;18.36;67.87
60258;BME280;46115;44.484;11.314;2023-05-03T17:02:58;100750.75;;;17.76;67.63
60258;BME280;46115;44.484;11.314;2023-05-03T17:07:01;100746.06;;;18.15;68.68
60258;BME280;46115;44.484;11.314;2023-05-03T17:11:11;100742.25;;;17.71;68.82
60258;BME280;46115;44.484;11.314;2023-05-03T17:15:14;100751.44;;;17.91;69.95
60258;BME280;46115;44.484;11.314;2023-05-03T17:19:16;100749.69;;;17.66;73.79
60258;BME280;46115;44.484;11.314;2023-05-03T17:23:19;100756.19;;;17.51;75.72
60258;BME280;46115;44.484;11.314;2023-05-03T17:27:23;100750.66;;;17.29;76.97
60258;BME280;46115;44.484;11.314;2023-05-03T17:31:25;100751.59;;;17.04;79.17
60258;BME280;46115;44.484;11.314;2023-05-03T17:35:28;100752.13;;;16.96;79.85
60258;BME280;46115;44.484;11.314;2023-05-03T17:39:30;100757.34;;;17.10;80.17
60258;BME280;46115;44.484;11.314;2023-05-03T17:43:34;100754.50;;;16.75;84.15
60258;BME280;46115;44.484;11.314;2023-05-03T17:47:37;100758.69;;;16.67;82.97
60258;BME280;46115;44.484;11.314;2023-05-03T17:51:39;100758.63;;;16.54;85.55
60258;BME280;46115;44.484;11.314;2023-05-03T17:55:41;100763.31;;;16.50;85.02
60258;BME280;46115;44.484;11.314;2023-05-03T17:59:45;100767.00;;;16.10;88.37
60258;BME280;46115;44.484;11.314;2023-05-03T18:03:48;100776.25;;;16.57;79.33
60258;BME280;46115;44.484;11.314;2023-05-03T18:07:50;100774.59;;;16.81;78.82
60258;BME280;46115;44.484;11.314;2023-05-03T18:11:53;100783.19;;;16.46;81.22
60258;BME280;46115;44.484;11.314;2023-05-03T18:15:57;100779.00;;;16.55;80.17
60258;BME280;46115;44.484;11.314;2023-05-03T18:20:00;100783.72;;;16.64;83.75
60258;BME280;46115;44.484;11.314;2023-05-03T18:24:06;100792.63;;;16.25;84.17
60258;BME280;46115;44.484;11.314;2023-05-03T18:28:09;100792.56;;;16.39;85.96
60258;BME280;46115;44.484;11.314;2023-05-03T18:32:13;100772.09;;;16.00;86.42
60258;BME280;46115;44.484;11.314;2023-05-03T18:36:15;100805.16;;;15.98;88.19
60258;BME280;46115;44.484;11.314;2023-05-03T18:40:18;100813.63;;;16.17;87.79
60258;BME280;46115;44.484;11.314;2023-05-03T18:44:20;100804.38;;;15.54;90.00
60258;BME280;46115;44.484;11.314;2023-05-03T18:48:26;100788.06;;;15.32;91.17
60258;BME280;46115;44.484;11.314;2023-05-03T18:52:30;100795.66;;;15.38;92.13
60258;BME280;46115;44.484;11.314;2023-05-03T18:56:32;100782.66;;;15.05;93.06
60258;BME280;46115;44.484;11.314;2023-05-03T19:00:35;100816.63;;;15.02;94.36
60258;BME280;46115;44.484;11.314;2023-05-03T19:04:39;100812.44;;;14.97;93.57
60258;BME280;46115;44.484;11.314;2023-05-03T22:06:09;100919.66;;;12.93;100.00
60258;BME280;46115;44.484;11.314;2023-05-03T22:10:12;100925.84;;;12.94;100.00
60258;BME280;46115;44.484;11.314;2023-05-03T22:14:15;100919.91;;;12.89;100.00
60258;BME280;46115;44.484;11.314;2023-05-03T22:18:18;100921.47;;;12.93;100.00
60258;BME280;46115;44.484;11.314;2023-05-03T22:22:21;100923.97;;;12.96;100.00
60258;BME280;46115;44.484;11.314;2023-05-03T22:26:24;100920.13;;;13.01;100.00
60258;BME280;46115;44.484;11.314;2023-05-03T22:30:27;100875.09;;;12.82;100.00
60258;BME280;46115;44.484;11.314;2023-05-03T22:34:29;100929.16;;;12.80;100.00
60258;BME280;46115;44.484;11.314;2023-05-03T22:38:33;100927.16;;;12.85;100.00
60258;BME280;46115;44.484;11.314;2023-05-03T22:42:35;100922.94;;;12.98;100.00
60258;BME280;46115;44.484;11.314;2023-05-03T22:46:39;100927.31;;;12.99;100.00
60258;BME280;46115;44.484;11.314;2023-05-03T22:50:41;100931.06;;;12.95;100.00
60258;BME280;46115;44.484;11.314;2023-05-03T22:54:45;100925.59;;;12.81;100.00
60258;BME280;46115;44.484;11.314;2023-05-03T22:58:48;100936.50;;;13.09;100.00
60258;BME280;46115;44.484;11.314;2023-05-03T23:02:50;100930.91;;;12.98;100.00
60258;BME280;46115;44.484;11.314;2023-05-03T23:06:53;100918.97;;;12.90;100.00
60258;BME280;46115;44.484;11.314;2023-05-03T23:10:56;100929.25;;;12.96;100.00
60258;BME280;46115;44.484;11.314;2023-05-03T23:14:59;100927.16;;;13.02;100.00
60258;BME280;46115;44.484;11.314;2023-05-03T23:19:02;100932.63;;;12.99;100.00
60258;BME280;46115;44.484;11.314;2023-05-03T23:23:04;100929.56;;;13.07;100.00
60258;BME280;46115;44.484;11.314;2023-05-03T23:27:08;100929.50;;;13.26;100.00
60258;BME280;46115;44.484;11.314;2023-05-03T23:31:12;100921.97;;;13.17;100.00
60258;BME280;46115;44.484;11.314;2023-05-03T23:35:14;100915.88;;;13.15;100.00
60258;BME280;46115;44.484;11.314;2023-05-03T23:39:17;100927.69;;;13.09;100.00
60258;BME280;46115;44.484;11.314;2023-05-03T23:43:21;100916.66;;;13.17;100.00
60258;BME280;46115;44.484;11.314;2023-05-03T23:47:23;100916.31;;;13.24;100.00
60258;BME280;46115;44.484;11.314;2023-05-03T23:51:25;100894.19;;;13.06;100.00
60258;BME280;46115;44.484;11.314;2023-05-03T23:55:28;100917.69;;;13.14;100.00
60258;BME280;46115;44.484;11.314;2023-05-03T23:59:32;100923.72;;;13.00;100.00
